Time;durP1;ratioP1;P1;durP2;ratioP2;P2;SDS_P1;SDS_P2;PMS_P1;PMS_P2;Temp;Humidity;BMP_temperature;BMP_pressure;BME280_temperature;BME280_humidity;BME280_pressure;Samples;Min_cycle;Max_cycle;Signal;HPM_P1;HPM_P2
2022/01/29 00:00:50;;;;;;;7.97;5.33;;;3.40;1.00;;;;;;5056666;28;20541;-68
2022/01/29 00:03:17;;;;;;;9.40;6.20;;;3.50;99.90;;;;;;5059231;28;20631;-69
2022/01/29 00:05:45;;;;;;;8.20;6.20;;;3.50;29.70;;;;;;5055871;28;20532;-70
2022/01/29 00:08:12;;;;;;;12.47;6.90;;;3.50;99.90;;;;;;5050126;28;20511;-69
2022/01/29 00:10:40;;;;;;;14.63;6.90;;;3.60;99.90;;;;;;5051604;28;20529;-69
2022/01/29 00:13:06;;;;;;;7.90;5.67;;;3.70;1.00;;;;;;5049367;28;20937;-68
2022/01/29 00:15:34;;;;;;;11.07;6.67;;;3.70;99.90;;;;;;5050767;28;20577;-69
2022/01/29 00:18:00;;;;;;;9.20;6.20;;;3.80;1.00;;;;;;5050434;28;20477;-68
2022/01/29 00:20:27;;;;;;;10.37;7.00;;;3.70;1.00;;;;;;5050960;28;20454;-69
2022/01/29 00:22:55;;;;;;;8.80;6.10;;;3.80;1.00;;;;;;5050210;28;20442;-69
2022/01/29 00:25:22;;;;;;;11.83;6.87;;;3.90;99.90;;;;;;5050373;28;20896;-68
2022/01/29 00:27:49;;;;;;;10.17;6.80;;;3.90;1.00;;;;;;5042937;28;20960;-69
2022/01/29 00:30:18;;;;;;;10.80;6.07;;;3.90;59.40;;;;;;5050465;28;20450;-69
2022/01/29 00:32:45;;;;;;;8.57;6.00;;;3.90;1.00;;;;;;5050570;28;20451;-69
2022/01/29 00:35:12;;;;;;;11.13;7.80;;;3.70;99.90;;;;;;5050238;28;20492;-68
2022/01/29 00:37:39;;;;;;;12.30;6.97;;;3.70;1.00;;;;;;5050649;28;20541;-69
2022/01/29 00:40:08;;;;;;;7.77;5.80;;;3.70;99.90;;;;;;5049758;28;20493;-69
2022/01/29 00:42:35;;;;;;;10.50;6.57;;;3.70;1.00;;;;;;5049995;28;20986;-68
2022/01/29 00:45:02;;;;;;;10.67;6.70;;;3.70;1.00;;;;;;5050048;28;20446;-68
2022/01/29 00:47:29;;;;;;;8.90;7.17;;;3.60;20.80;;;;;;5050464;28;20453;-68
2022/01/29 00:49:57;;;;;;;8.00;5.93;;;3.60;99.90;;;;;;5050422;28;20462;-68
2022/01/29 00:52:23;;;;;;;11.27;6.60;;;3.60;99.90;;;;;;5050392;28;20442;-68
2022/01/29 00:54:50;;;;;;;14.63;5.83;;;3.50;99.90;;;;;;5050174;28;20517;-68
2022/01/29 00:57:18;;;;;;;10.83;7.00;;;3.40;99.90;;;;;;5049289;28;20438;-68
2022/01/29 00:59:45;;;;;;;9.97;5.70;;;3.50;1.00;;;;;;5050396;28;20689;-68
2022/01/29 01:02:13;;;;;;;7.40;6.40;;;3.50;1.00;;;;;;5049689;28;20820;-68
2022/01/29 01:04:40;;;;;;;10.07;6.10;;;3.50;99.90;;;;;;5050085;28;20458;-69
2022/01/29 01:07:09;;;;;;;10.17;5.27;;;3.50;99.90;;;;;;5048909;28;20450;-68
2022/01/29 01:09:36;;;;;;;10.27;6.47;;;3.60;99.90;;;;;;5050181;28;20518;-69
2022/01/29 01:12:04;;;;;;;10.43;5.83;;;3.50;99.90;;;;;;5049349;28;20530;-68
2022/01/29 01:14:32;;;;;;;8.70;6.03;;;3.50;99.90;;;;;;5049716;28;20478;-68
2022/01/29 01:16:59;;;;;;;8.90;7.13;;;3.50;99.90;;;;;;5049460;28;21273;-68
2022/01/29 01:19:26;;;;;;;6.37;5.63;;;3.50;99.90;;;;;;5050200;28;20546;-68
2022/01/29 01:21:54;;;;;;;11.07;6.67;;;3.40;99.90;;;;;;5050274;28;20456;-68
2022/01/29 01:24:21;;;;;;;8.60;5.60;;;3.50;99.90;;;;;;5049217;28;20972;-68
2022/01/29 01:26:48;;;;;;;8.40;5.60;;;3.50;99.90;;;;;;5054070;28;20456;-68
2022/01/29 01:29:16;;;;;;;7.80;5.67;;;3.40;1.00;;;;;;5053423;28;20830;-68
2022/01/29 01:31:45;;;;;;;9.20;4.90;;;3.40;1.00;;;;;;5054356;28;20484;-68
2022/01/29 01:34:12;;;;;;;6.10;5.17;;;3.40;1.00;;;;;;5046402;28;20482;-68
2022/01/29 01:36:45;;;;;;;6.30;5.30;;;3.70;1.00;;;;;;5054541;28;20442;-68
2022/01/29 01:39:15;;;;;;;9.10;6.20;;;3.70;99.90;;;;;;5053081;28;20472;-69
2022/01/29 01:41:52;;;;;;;8.73;6.03;;;3.90;21.30;;;;;;5054413;28;20543;-69
2022/01/29 01:44:19;;;;;;;7.83;5.17;;;4.10;99.90;;;;;;5053016;28;20704;-68
2022/01/29 01:46:47;;;;;;;7.27;5.07;;;4.20;99.90;;;;;;5054078;28;20974;-68
2022/01/29 01:49:15;;;;;;;7.10;4.87;;;4.20;99.90;;;;;;5052985;28;20454;-68
2022/01/29 01:51:43;;;;;;;6.43;5.03;;;4.30;99.90;;;;;;5053761;28;20481;-68
2022/01/29 01:54:10;;;;;;;7.30;4.93;;;4.30;99.90;;;;;;5052544;28;20572;-69
2022/01/29 01:56:37;;;;;;;6.80;4.27;;;4.30;99.90;;;;;;5053870;28;20447;-68
2022/01/29 01:59:04;;;;;;;8.30;5.20;;;4.30;99.90;;;;;;5053285;28;20442;-68
2022/01/29 02:01:31;;;;;;;8.43;5.03;;;4.30;99.90;;;;;;5053532;28;20454;-69
2022/01/29 02:03:59;;;;;;;7.87;5.60;;;4.20;1.00;;;;;;5053067;28;20553;-68
2022/01/29 02:06:27;;;;;;;6.80;4.63;;;4.20;99.90;;;;;;5043249;28;20494;-68
2022/01/29 02:08:58;;;;;;;6.60;4.97;;;4.20;1.00;;;;;;5053097;28;20478;-68
2022/01/29 02:11:25;;;;;;;6.77;4.70;;;4.20;1.00;;;;;;5053519;28;20447;-69
2022/01/29 02:13:53;;;;;;;5.80;3.90;;;4.40;1.00;;;;;;5052726;28;20478;-68
2022/01/29 02:16:20;;;;;;;7.27;4.80;;;4.40;99.90;;;;;;5053131;28;20811;-69
2022/01/29 02:18:47;;;;;;;11.80;5.27;;;4.40;1.00;;;;;;5053614;28;20450;-68
2022/01/29 02:21:17;;;;;;;8.00;4.57;;;4.30;1.00;;;;;;5052559;28;20595;-68
2022/01/29 02:23:45;;;;;;;7.33;4.80;;;4.20;90.30;;;;;;5052169;28;20523;-68
2022/01/29 02:26:12;;;;;;;7.07;4.57;;;4.30;99.90;;;;;;5052334;28;20537;-68
2022/01/29 02:28:39;;;;;;;9.00;5.60;;;4.20;1.00;;;;;;5053416;28;20446;-68
2022/01/29 02:31:06;;;;;;;6.77;5.27;;;4.30;1.00;;;;;;5052430;28;20476;-68
2022/01/29 02:33:35;;;;;;;5.67;3.70;;;4.00;99.90;;;;;;5052277;28;20442;-68
2022/01/29 02:36:02;;;;;;;8.10;5.33;;;3.90;1.00;;;;;;5051540;28;21065;-68
2022/01/29 02:38:29;;;;;;;9.40;5.20;;;3.90;99.90;;;;;;5052400;28;20462;-69
2022/01/29 02:41:01;;;;;;;5.67;3.87;;;4.00;99.90;;;;;;5052350;28;20985;-68
2022/01/29 02:43:32;;;;;;;7.47;4.80;;;4.10;1.00;;;;;;5044672;28;20899;-68
2022/01/29 02:46:05;;;;;;;6.50;4.60;;;4.20;99.90;;;;;;5053353;28;20833;-69
2022/01/29 02:48:32;;;;;;;6.30;4.60;;;4.20;99.90;;;;;;5062203;28;20446;-68
2022/01/29 02:50:59;;;;;;;7.20;5.17;;;4.20;1.00;;;;;;5063376;28;20784;-69
2022/01/29 02:53:26;;;;;;;6.30;4.60;;;4.20;1.00;;;;;;5053281;28;20681;-69
2022/01/29 02:55:53;;;;;;;10.17;4.83;;;4.10;1.00;;;;;;5052623;28;20478;-68
2022/01/29 02:58:21;;;;;;;5.60;3.83;;;4.00;99.90;;;;;;5052256;28;20450;-68
2022/01/29 03:00:48;;;;;;;5.73;4.50;;;4.00;1.00;;;;;;5052784;28;20465;-68
2022/01/29 03:03:15;;;;;;;7.27;4.40;;;3.90;99.90;;;;;;5051450;28;21260;-68
2022/01/29 03:05:42;;;;;;;5.40;4.47;;;3.80;99.90;;;;;;5052600;28;20459;-69
2022/01/29 03:08:09;;;;;;;7.83;4.80;;;3.80;79.30;;;;;;5051119;28;20539;-69
2022/01/29 03:10:36;;;;;;;10.67;4.50;;;3.80;1.00;;;;;;5052214;28;20805;-68
2022/01/29 03:13:03;;;;;;;7.67;4.50;;;3.90;1.00;;;;;;5050419;28;20466;-68
2022/01/29 03:15:31;;;;;;;6.13;4.50;;;3.90;99.90;;;;;;5051843;28;20486;-68
2022/01/29 03:17:58;;;;;;;6.40;4.27;;;3.70;1.00;;;;;;5051927;28;20537;-68
2022/01/29 03:20:25;;;;;;;6.37;4.53;;;3.60;99.90;;;;;;5052433;28;20449;-68
2022/01/29 03:22:52;;;;;;;5.03;4.13;;;3.50;1.00;;;;;;5051707;28;20450;-68
2022/01/29 03:25:19;;;;;;;6.90;4.73;;;3.40;99.90;;;;;;5050485;28;20493;-68
2022/01/29 03:27:46;;;;;;;8.77;4.53;;;3.40;1.00;;;;;;5052152;28;20450;-68
2022/01/29 03:30:13;;;;;;;6.67;4.30;;;3.40;1.00;;;;;;5051344;28;20823;-68
2022/01/29 03:32:42;;;;;;;7.07;4.80;;;3.50;99.90;;;;;;5051546;28;20443;-68
2022/01/29 03:35:10;;;;;;;6.40;4.37;;;3.40;99.90;;;;;;5051599;28;20482;-68
2022/01/29 03:37:37;;;;;;;5.20;4.50;;;3.40;99.90;;;;;;5051677;28;20469;-68
2022/01/29 03:40:06;;;;;;;6.40;4.03;;;3.50;99.90;;;;;;5051099;28;20529;-68
2022/01/29 03:42:39;;;;;;;15.13;5.17;;;3.70;99.90;;;;;;5016736;28;20464;-68
2022/01/29 03:45:07;;;;;;;8.83;4.97;;;3.50;1.00;;;;;;5048537;28;20926;-69
2022/01/29 03:47:34;;;;;;;6.27;3.87;;;3.30;99.90;;;;;;5051553;28;20450;-68
2022/01/29 03:50:03;;;;;;;7.33;4.57;;;3.40;1.00;;;;;;5050317;28;20450;-68
2022/01/29 03:52:30;;;;;;;5.40;4.17;;;3.50;99.90;;;;;;5050500;28;20461;-68
2022/01/29 03:54:57;;;;;;;5.03;4.17;;;3.60;1.00;;;;;;5051711;28;20849;-68
2022/01/29 03:57:24;;;;;;;5.70;4.00;;;3.50;99.90;;;;;;5050792;28;20454;-68
2022/01/29 03:59:51;;;;;;;7.43;4.03;;;3.60;1.00;;;;;;5051424;28;20540;-68
2022/01/29 04:02:18;;;;;;;7.30;4.53;;;3.60;99.90;;;;;;5050478;28;20446;-68
2022/01/29 04:04:45;;;;;;;6.67;4.83;;;3.50;1.00;;;;;;5051328;28;20458;-68
2022/01/29 04:07:13;;;;;;;5.03;3.73;;;3.50;1.00;;;;;;5050274;28;20477;-68
2022/01/29 04:09:47;;;;;;;7.00;4.40;;;3.60;99.90;;;;;;5050888;28;20528;-68
2022/01/29 04:12:14;;;;;;;5.00;3.20;;;3.70;1.00;;;;;;5050129;28;20485;-68
2022/01/29 04:14:41;;;;;;;4.40;3.80;;;3.70;99.90;;;;;;5050808;28;20993;-68
2022/01/29 04:17:10;;;;;;;4.23;3.83;;;3.50;1.00;;;;;;5050656;28;20450;-68
2022/01/29 04:19:37;;;;;;;8.73;3.70;;;3.60;1.00;;;;;;5051382;28;20462;-67
2022/01/29 04:22:05;;;;;;;6.17;3.53;;;3.50;99.90;;;;;;5050152;28;20454;-67
2022/01/29 04:24:34;;;;;;;3.97;3.50;;;3.50;99.90;;;;;;5050939;28;20463;-67
2022/01/29 04:27:03;;;;;;;8.57;3.90;;;3.60;99.90;;;;;;5050061;28;20529;-67
2022/01/29 04:29:40;;;;;;;7.50;4.00;;;3.60;99.90;;;;;;5050895;28;20585;-67
2022/01/29 04:32:12;;;;;;;5.37;3.67;;;3.60;99.90;;;;;;5045316;28;20447;-67
2022/01/29 04:34:39;;;;;;;4.50;3.20;;;3.60;99.90;;;;;;5050833;28;20458;-67
2022/01/29 04:37:06;;;;;;;4.57;3.43;;;3.60;99.90;;;;;;5049937;28;20575;-68
2022/01/29 04:39:34;;;;;;;4.60;3.00;;;3.70;99.90;;;;;;5051270;28;20939;-67
2022/01/29 04:42:01;;;;;;;3.80;3.30;;;3.70;35.40;;;;;;5049952;28;20472;-67
2022/01/29 04:44:28;;;;;;;4.63;2.63;;;3.70;1.00;;;;;;5050043;28;20465;-67
2022/01/29 04:46:55;;;;;;;6.73;3.67;;;3.60;1.00;;;;;;5050860;28;20464;-67
2022/01/29 04:49:22;;;;;;;4.53;3.00;;;3.60;1.00;;;;;;5050164;28;20482;-67
2022/01/29 04:51:49;;;;;;;5.20;3.37;;;3.60;99.90;;;;;;5050606;28;20536;-67
2022/01/29 04:54:16;;;;;;;8.50;2.97;;;3.70;1.00;;;;;;5049342;28;20490;-67
2022/01/29 04:56:44;;;;;;;3.67;3.33;;;3.80;1.00;;;;;;5050630;28;20496;-69
2022/01/29 04:59:11;;;;;;;4.10;3.40;;;3.70;1.00;;;;;;5048939;28;20461;-68
2022/01/29 05:01:39;;;;;;;4.60;3.30;;;3.80;1.00;;;;;;5050531;28;20507;-68
2022/01/29 05:04:05;;;;;;;6.70;3.83;;;4.00;99.90;;;;;;5049411;28;20458;-68
2022/01/29 05:06:32;;;;;;;4.70;3.57;;;4.10;41.40;;;;;;5050575;28;20453;-69
2022/01/29 05:08:59;;;;;;;5.40;3.50;;;4.20;1.00;;;;;;5049926;28;20481;-68
2022/01/29 05:11:28;;;;;;;4.30;3.00;;;4.30;99.90;;;;;;5050389;28;20470;-68
2022/01/29 05:13:56;;;;;;;4.37;3.03;;;4.40;1.00;;;;;;5049275;28;20830;-68
2022/01/29 05:16:36;;;;;;;6.03;3.30;;;4.40;99.90;;;;;;5049984;28;20539;-68
2022/01/29 05:27:15;;;;;;;6.07;4.83;;;4.40;1.00;;;;;;5049600;28;20473;-68
2022/01/29 05:29:43;;;;;;;5.50;4.90;;;4.40;99.90;;;;;;5050725;28;20452;-68
2022/01/29 05:32:12;;;;;;;6.07;5.13;;;4.20;69.00;;;;;;5038508;28;20441;-68
2022/01/29 05:34:40;;;;;;;7.70;5.73;;;4.10;1.00;;;;;;5060819;28;20438;-70
2022/01/29 05:37:07;;;;;;;7.97;5.40;;;4.10;67.20;;;;;;5052525;28;20470;-70
2022/01/29 05:39:34;;;;;;;8.30;6.10;;;4.00;99.90;;;;;;5050548;28;20545;-68
2022/01/29 05:42:01;;;;;;;8.90;5.87;;;;;;;;;;5049467;28;20443;-67
2022/01/29 05:44:28;;;;;;;10.00;5.83;;;;;;;;;;5050264;28;20458;-70
2022/01/29 05:46:57;;;;;;;7.83;5.33;;;;;;;;;;5050490;28;20525;-69
2022/01/29 05:49:24;;;;;;;11.90;6.43;;;;;;;;;;5049532;28;20529;-70
2022/01/29 05:51:52;;;;;;;6.97;5.57;;;;;;;;;;5049796;28;20445;-67
2022/01/29 05:54:19;;;;;;;8.77;5.87;;;;;;;;;;5049297;28;20823;-68
2022/01/29 05:56:47;;;;;;;7.77;5.27;;;;;;;;;;5049890;28;20504;-68
2022/01/29 05:59:14;;;;;;;9.43;5.63;;;;;;;;;;5049441;28;20865;-69
2022/01/29 06:01:41;;;;;;;9.33;7.03;;;;;;;;;;5049843;28;20482;-69
2022/01/29 06:04:10;;;;;;;8.43;6.20;;;;;;;;;;5049137;28;20458;-69
2022/01/29 06:06:37;;;;;;;8.20;5.90;;;;;;;;;;5050091;28;20454;-68
2022/01/29 06:09:05;;;;;;;8.43;5.77;;;;;;;;;;5048044;28;20569;-68
2022/01/29 06:11:32;;;;;;;7.67;5.90;;;;;;;;;;5046896;28;20438;-67
2022/01/29 06:13:59;;;;;;;8.13;5.00;;;;;;;;;;5052488;28;20454;-67
2022/01/29 06:16:27;;;;;;;9.90;5.77;;;;;;;;;;5049446;28;20473;-68
2022/01/29 06:18:54;;;;;;;6.00;4.97;;;;;;;;;;5051809;28;20464;-67
2022/01/29 06:21:23;;;;;;;8.57;4.73;;;;;;;;;;5049364;28;20448;-68
2022/01/29 06:23:50;;;;;;;6.90;5.00;;;;;;;;;;5049679;28;20441;-67
2022/01/29 06:26:17;;;;;;;6.80;5.10;;;;;;;;;;5050540;28;20449;-67
2022/01/29 06:28:44;;;;;;;10.63;5.80;;;;;;;;;;5049873;28;20450;-68
2022/01/29 06:31:12;;;;;;;6.90;5.00;;;;;;;;;;5049704;28;20514;-68
2022/01/29 06:33:39;;;;;;;9.00;5.43;;;;;;;;;;5049830;28;20454;-68
2022/01/29 06:36:06;;;;;;;9.03;7.17;;;;;;;;;;5044505;28;20476;-65
2022/01/29 06:38:35;;;;;;;7.43;5.67;;;;;;;;;;5050037;28;20454;-65
2022/01/29 06:41:02;;;;;;;8.57;6.93;;;;;;;;;;5048974;28;20457;-64
2022/01/29 06:43:29;;;;;;;6.97;5.77;;;;;;;;;;5049019;28;20465;-65
2022/01/29 06:45:57;;;;;;;8.00;5.87;;;;;;;;;;5049749;28;20461;-64
2022/01/29 06:48:24;;;;;;;9.77;5.47;;;;;;;;;;5048759;28;20482;-64
2022/01/29 06:50:51;;;;;;;8.67;4.93;;;;;;;;;;5049661;28;20863;-64
2022/01/29 06:53:18;;;;;;;7.57;4.93;;;;;;;;;;5049078;28;20554;-64
2022/01/29 06:55:47;;;;;;;7.33;5.13;;;;;;;;;;5046468;28;20974;-64
2022/01/29 06:58:14;;;;;;;6.47;5.03;;;;;;;;;;5046035;28;20820;-64
2022/01/29 07:00:41;;;;;;;7.87;4.77;;;;;;;;;;5050229;28;20529;-64
2022/01/29 07:03:08;;;;;;;7.87;6.00;;;;;;;;;;5048403;28;20935;-64
2022/01/29 07:05:35;;;;;;;8.80;5.93;;;;;;;;;;5048958;28;20446;-65
2022/01/29 07:08:04;;;;;;;10.93;6.20;;;;;;;;;;5048262;28;20994;-64
2022/01/29 07:10:31;;;;;;;9.83;5.87;;;;;;;;;;5048457;28;20762;-64
2022/01/29 07:13:00;;;;;;;7.70;5.37;;;;;;;;;;5048936;28;20529;-64
2022/01/29 07:15:27;;;;;;;6.87;5.40;;;;;;;;;;5048558;28;20446;-64
2022/01/29 07:17:54;;;;;;;6.23;5.30;;;;;;;;;;5049693;28;20516;-65
2022/01/29 07:20:21;;;;;;;8.07;5.20;;;;;;;;;;5050314;28;20521;-64
2022/01/29 07:22:48;;;;;;;8.77;4.27;;;;;;;;;;5048011;28;20555;-64
2022/01/29 07:25:15;;;;;;;7.33;5.17;;;;;;;;;;5048642;28;20446;-64
2022/01/29 07:27:42;;;;;;;7.13;5.43;;;;;;;;;;5049118;28;20930;-64
2022/01/29 07:30:12;;;;;;;8.73;4.50;;;;;;;;;;5048622;28;20455;-65
2022/01/29 07:32:43;;;;;;;6.57;4.33;;;;;;;;;;5049061;28;20450;-66
2022/01/29 07:35:10;;;;;;;8.53;4.87;;;;;;;;;;5049201;28;20557;-65
2022/01/29 07:37:38;;;;;;;5.30;3.90;;;;;;;;;;5048926;28;20502;-65
2022/01/29 07:40:06;;;;;;;5.43;4.13;;;;;;;;;;5048560;28;20541;-64
2022/01/29 07:42:33;;;;;;;4.83;3.80;;;;;;;;;;5051385;28;20450;-67
2022/01/29 07:45:00;;;;;;;14.63;5.13;;;4.10;99.90;;;;;;5050587;28;20458;-64
2022/01/29 07:47:28;;;;;;;5.70;3.50;;;4.10;5.70;;;;;;5050799;28;20504;-66
2022/01/29 07:49:55;;;;;;;5.10;3.87;;;4.10;1.00;;;;;;5051226;28;20438;-66
2022/01/29 07:52:21;;;;;;;4.63;3.80;;;4.20;1.00;;;;;;5047985;28;20958;-66
2022/01/29 07:54:48;;;;;;;5.37;3.70;;;4.20;99.90;;;;;;5051393;28;20457;-66
2022/01/29 07:57:15;;;;;;;4.30;3.17;;;4.30;99.90;;;;;;5049616;28;20482;-68
2022/01/29 07:59:42;;;;;;;4.37;3.03;;;;;;;;;;5050469;28;20454;-66
2022/01/29 08:02:09;;;;;;;4.70;3.33;;;;;;;;;;5049315;28;20442;-66
2022/01/29 08:04:38;;;;;;;4.70;3.40;;;;;;;;;;5050895;28;20450;-66
2022/01/29 08:07:05;;;;;;;4.20;3.10;;;;;;;;;;5047200;28;20451;-65
2022/01/29 08:09:32;;;;;;;10.27;5.70;;;;;;;;;;5050895;28;20489;-66
2022/01/29 08:11:59;;;;;;;7.30;3.27;;;;;;;;;;5049596;28;20442;-66
2022/01/29 08:14:26;;;;;;;6.07;3.30;;;;;;;;;;5049801;28;20444;-67
2022/01/29 08:16:53;;;;;;;4.20;3.13;;;;;;;;;;5050695;28;20485;-68
2022/01/29 08:19:21;;;;;;;4.07;3.40;;;;;;;;;;5049819;28;20631;-68
2022/01/29 08:21:49;;;;;;;5.60;3.53;;;;;;;;;;5048832;28;20446;-67
2022/01/29 08:24:16;;;;;;;7.53;3.37;;;;;;;;;;5052617;28;20537;-67
2022/01/29 08:26:43;;;;;;;5.10;2.50;;;;;;;;;;5049333;28;20458;-67
2022/01/29 08:29:10;;;;;;;3.33;2.17;;;;;;;;;;5047348;28;20951;-66
2022/01/29 08:31:38;;;;;;;7.37;2.63;;;;;;;;;;5048567;28;20443;-67
2022/01/29 08:34:05;;;;;;;8.00;3.43;;;;;;;;;;5046090;28;20537;-66
2022/01/29 08:36:33;;;;;;;4.17;2.70;;;;;;;;;;5047605;28;20524;-67
2022/01/29 08:39:01;;;;;;;6.80;3.37;;;;;;;;;;5048663;28;20695;-66
2022/01/29 08:41:28;;;;;;;5.43;3.47;;;;;;;;;;5045528;28;20447;-66
2022/01/29 08:43:56;;;;;;;6.67;3.10;;;;;;;;;;5047177;28;20449;-66
2022/01/29 08:46:23;;;;;;;6.77;2.80;;;;;;;;;;5047604;28;20454;-66
2022/01/29 08:48:51;;;;;;;6.50;2.67;;;;;;;;;;5047550;28;20781;-69
2022/01/29 08:51:18;;;;;;;4.50;2.40;;;;;;;;;;5046327;28;20573;-66
2022/01/29 08:53:45;;;;;;;6.00;3.40;;;;;;;;;;5047029;28;20533;-67
2022/01/29 08:56:15;;;;;;;3.73;2.53;;;;;;;;;;5046419;28;20533;-66
2022/01/29 08:58:43;;;;;;;3.10;2.50;;;;;;;;;;5047754;28;20523;-66
2022/01/29 09:01:10;;;;;;;4.67;3.17;;;;;;;;;;5046804;28;20469;-66
2022/01/29 09:03:37;;;;;;;5.37;3.10;;;;;;;;;;5047410;28;20949;-67
2022/01/29 09:06:05;;;;;;;5.53;3.67;;;;;;;;;;5047527;28;20442;-68
2022/01/29 09:08:32;;;;;;;5.73;3.07;;;;;;;;;;5046846;28;20478;-66
2022/01/29 09:10:59;;;;;;;3.50;3.20;;;;;;;;;;5047632;28;20446;-66
2022/01/29 09:13:28;;;;;;;4.13;3.13;;;;;;;;;;5047040;28;20458;-67
2022/01/29 09:15:56;;;;;;;4.40;3.30;;;;;;;;;;5044518;28;20464;-66
2022/01/29 09:18:23;;;;;;;4.40;3.57;;;;;;;;;;5048001;28;21045;-66
2022/01/29 09:20:50;;;;;;;11.40;3.80;;;;;;;;;;5049507;28;20741;-66
2022/01/29 09:23:17;;;;;;;4.70;2.70;;;;;;;;;;5042882;28;20446;-66
2022/01/29 09:25:45;;;;;;;3.97;3.27;;;;;;;;;;5048008;28;20949;-66
2022/01/29 09:28:13;;;;;;;5.20;2.97;;;;;;;;;;5046710;28;20469;-66
2022/01/29 09:30:43;;;;;;;4.17;2.80;;;;;;;;;;5045232;28;20446;-67
2022/01/29 09:33:10;;;;;;;5.80;3.27;;;;;;;;;;5046268;28;20442;-66
2022/01/29 09:35:38;;;;;;;4.33;3.60;;;;;;;;;;5047324;28;20470;-67
2022/01/29 09:38:05;;;;;;;4.00;2.53;;;;;;;;;;5042582;28;20997;-66
2022/01/29 09:40:33;;;;;;;4.80;3.10;;;;;;;;;;5043532;28;20442;-66
2022/01/29 09:43:02;;;;;;;4.83;3.30;;;;;;;;;;5048879;28;20460;-66
2022/01/29 09:45:29;;;;;;;3.57;2.80;;;;;;;;;;5049881;28;20457;-66
2022/01/29 09:48:02;;;;;;;7.63;3.67;;;;;;;;;;5053334;28;20453;-67
2022/01/29 09:50:29;;;;;;;5.70;3.17;;;;;;;;;;5053355;28;20527;-66
2022/01/29 09:52:56;;;;;;;6.73;3.27;;;;;;;;;;5052812;28;20950;-67
2022/01/29 09:55:24;;;;;;;5.37;3.20;;;;;;;;;;5052879;28;20537;-66
2022/01/29 09:57:51;;;;;;;4.77;3.80;;;;;;;;;;5053241;28;20486;-68
2022/01/29 10:00:19;;;;;;;6.00;3.90;;;;;;;;;;5052311;28;20450;-68
2022/01/29 10:02:46;;;;;;;5.60;3.47;;;;;;;;;;5053071;28;20438;-67
2022/01/29 10:05:14;;;;;;;6.00;4.13;;;;;;;;;;5052288;28;20776;-68
2022/01/29 10:07:42;;;;;;;4.63;3.30;;;;;;;;;;5052437;28;20565;-66
2022/01/29 10:10:18;;;;;;;4.20;3.10;;;6.40;22.40;;;;;;5051972;28;20438;-67
2022/01/29 10:12:45;;;;;;;4.60;3.30;;;6.40;18.10;;;;;;5049908;28;20938;-68
2022/01/29 10:15:12;;;;;;;4.50;3.40;;;6.40;13.00;;;;;;5051804;28;20481;-68
2022/01/29 10:17:47;;;;;;;5.13;2.53;;;6.50;21.70;;;;;;5052875;28;20482;-66
2022/01/29 10:20:19;;;;;;;5.90;2.77;;;6.60;25.60;;;;;;5051453;28;20981;-69
2022/01/29 10:22:48;;;;;;;6.77;3.10;;;6.70;30.50;;;;;;5049992;28;20430;-66
2022/01/29 10:25:17;;;;;;;4.70;3.03;;;6.70;31.50;;;;;;5049516;28;20461;-67
2022/01/29 10:28:09;;;;;;;12.40;7.83;;;6.70;44.70;;;;;;5049330;28;20450;-67
2022/01/29 10:30:37;;;;;;;3.80;3.00;;;6.70;52.00;;;;;;5050820;28;20802;-68
2022/01/29 10:33:19;;;;;;;3.47;3.17;;;6.60;81.40;;;;;;5048732;28;20938;-68
2022/01/29 10:35:48;;;;;;;6.07;3.10;;;6.70;95.70;;;;;;5050635;28;20442;-69
2022/01/29 10:38:20;;;;;;;4.40;3.00;;;6.80;93.30;;;;;;5049268;28;20501;-69
2022/01/29 10:40:47;;;;;;;3.93;2.70;;;;;;;;;;5050296;28;20442;-68
2022/01/29 10:43:14;;;;;;;5.60;3.30;;;;;;;;;;5049153;28;20447;-69
2022/01/29 10:45:44;;;;;;;4.17;2.63;;;;;;;;;;5050117;28;21351;-68
2022/01/29 10:48:11;;;;;;;5.17;3.17;;;;;;;;;;5049089;28;20830;-67
2022/01/29 10:50:38;;;;;;;4.67;3.53;;;;;;;;;;5050223;28;20818;-69
2022/01/29 10:53:24;;;;;;;5.73;3.70;;;;;;;;;;5048560;28;20446;-67
2022/01/29 10:56:03;;;;;;;5.40;2.87;;;;;;;;;;5050313;28;20826;-71
2022/01/29 10:58:30;;;;;;;3.03;2.60;;;6.80;91.30;;;;;;5049373;28;20516;-67
2022/01/29 11:01:14;;;;;;;4.73;3.40;;;7.40;95.40;;;;;;5049133;28;20447;-69
2022/01/29 11:03:41;;;;;;;2.93;2.30;;;7.50;99.90;;;;;;5050121;28;20866;-68
2022/01/29 11:06:09;;;;;;;3.17;2.00;;;7.50;99.90;;;;;;5050165;28;20529;-70
2022/01/29 11:08:38;;;;;;;2.30;1.90;;;7.60;99.90;;;;;;5052390;28;20574;-71
2022/01/29 11:11:07;;;;;;;5.63;2.23;;;7.50;99.90;;;;;;5044628;28;20466;-69
2022/01/29 11:13:36;;;;;;;2.33;2.07;;;7.40;99.90;;;;;;5061821;28;20458;-68
2022/01/29 11:16:04;;;;;;;2.77;2.00;;;7.30;99.90;;;;;;5048228;28;20448;-66
2022/01/29 11:18:33;;;;;;;2.53;1.90;;;7.30;99.90;;;;;;5047398;28;20855;-69
2022/01/29 11:21:01;;;;;;;3.17;2.10;;;7.40;99.90;;;;;;5049908;28;20465;-66
2022/01/29 11:23:28;;;;;;;5.33;1.77;;;7.50;99.90;;;;;;5049685;28;20795;-69
2022/01/29 11:25:57;;;;;;;3.57;1.80;;;7.40;99.90;;;;;;5050223;28;20498;-69
2022/01/29 11:28:27;;;;;;;2.87;1.60;;;7.50;99.90;;;;;;5049431;28;20453;-69
2022/01/29 11:31:23;;;;;;;4.70;3.00;;;7.60;99.90;;;;;;5039783;28;20455;-69
2022/01/29 11:34:21;;;;;;;3.93;2.00;;;7.60;99.90;;;;;;5049223;28;20465;-69
2022/01/29 11:37:07;;;;;;;2.23;1.43;;;7.50;99.90;;;;;;5036262;28;20534;-69
2022/01/29 11:39:36;;;;;;;2.30;1.70;;;7.50;99.90;;;;;;5049474;28;20846;-69
2022/01/29 11:42:32;;;;;;;2.30;1.60;;;7.40;1.00;;;;;;5049388;28;20537;-66
2022/01/29 11:45:36;;;;;;;2.97;2.00;;;7.50;1.00;;;;;;5049806;28;20454;-69
2022/01/29 11:48:03;;;;;;;2.97;1.83;;;7.30;1.00;;;;;;5049131;28;21001;-67
2022/01/29 11:50:47;;;;;;;2.80;2.03;;;7.40;1.00;;;;;;5049452;28;20474;-69
2022/01/29 11:53:16;;;;;;;2.33;1.27;;;7.50;1.00;;;;;;5035501;28;20454;-67
2022/01/29 11:55:45;;;;;;;2.20;1.90;;;7.60;1.00;;;;;;5049154;28;20454;-69
2022/01/29 11:58:20;;;;;;;2.43;1.53;;;7.40;1.00;;;;;;5048201;28;20500;-69
2022/01/29 12:00:51;;;;;;;2.17;1.30;;;7.40;1.00;;;;;;5049182;28;20453;-69
2022/01/29 12:03:53;;;;;;;2.53;1.43;;;7.40;1.00;;;;;;5048869;28;20451;-69
2022/01/29 12:06:24;;;;;;;2.70;1.70;;;7.40;1.00;;;;;;5042995;28;20457;-69
2022/01/29 12:09:29;;;;;;;1.70;1.30;;;7.30;1.00;;;;;;5047983;28;20486;-68
2022/01/29 12:12:19;;;;;;;1.57;1.40;;;7.40;1.00;;;;;;5048883;28;20446;-69
2022/01/29 12:14:48;;;;;;;2.30;2.00;;;7.40;1.00;;;;;;5049419;28;20541;-68
2022/01/29 12:17:37;;;;;;;2.77;1.53;;;7.50;99.90;;;;;;5048290;28;20464;-69
2022/01/29 12:20:08;;;;;;;1.90;1.33;;;7.40;99.90;;;;;;5048095;28;20454;-66
2022/01/29 12:22:37;;;;;;;4.07;1.40;;;7.40;29.30;;;;;;5048962;28;20469;-69
2022/01/29 12:25:06;;;;;;;3.10;1.80;;;7.40;99.90;;;;;;5042787;28;20443;-67
2022/01/29 12:27:44;;;;;;;3.20;1.60;;;7.40;99.90;;;;;;5047967;28;20972;-69
2022/01/29 12:30:13;;;;;;;3.87;1.87;;;7.40;64.80;;;;;;5044829;28;20517;-68
2022/01/29 12:32:41;;;;;;;2.53;1.17;;;7.40;99.90;;;;;;5046990;28;20535;-66
2022/01/29 12:35:08;;;;;;;1.93;1.43;;;7.40;99.90;;;;;;5047352;28;20533;-68
2022/01/29 12:37:35;;;;;;;2.73;1.53;;;7.50;99.90;;;;;;5045367;28;20490;-69
2022/01/29 12:40:19;;;;;;;5.40;1.70;;;7.50;99.90;;;;;;5049247;28;20450;-66
2022/01/29 12:42:55;;;;;;;3.70;1.93;;;7.40;99.90;;;;;;5050987;28;20434;-69
2022/01/29 12:45:22;;;;;;;1.57;1.37;;;7.60;1.00;;;;;;5050604;28;20435;-68
2022/01/29 12:47:51;;;;;;;1.53;1.40;;;7.50;1.00;;;;;;5051125;28;20481;-69
2022/01/29 12:50:21;;;;;;;2.57;1.30;;;7.30;1.00;;;;;;5049480;28;20439;-71
2022/01/29 12:52:49;;;;;;;2.37;1.80;;;7.20;1.00;;;;;;5050937;28;20538;-68
2022/01/29 12:55:15;;;;;;;1.70;1.30;;;7.30;1.00;;;;;;5048694;28;20458;-68
2022/01/29 12:57:47;;;;;;;2.20;1.50;;;7.50;99.90;;;;;;5050297;28;20490;-68
2022/01/29 13:00:16;;;;;;;1.60;1.40;;;7.30;99.90;;;;;;5050122;28;20446;-68
2022/01/29 13:02:43;;;;;;;2.63;1.70;;;7.30;1.00;;;;;;5050800;28;20465;-68
2022/01/29 13:05:12;;;;;;;2.20;1.63;;;7.50;99.90;;;;;;5049373;28;20458;-68
2022/01/29 13:07:40;;;;;;;2.47;1.70;;;7.50;59.20;;;;;;5050736;28;20542;-68
2022/01/29 13:10:09;;;;;;;2.27;1.57;;;7.30;99.90;;;;;;5050000;28;20450;-68
2022/01/29 13:12:40;;;;;;;2.77;1.30;;;7.20;1.00;;;;;;5050730;28;20811;-68
2022/01/29 13:15:10;;;;;;;2.47;1.70;;;7.20;1.00;;;;;;5049633;28;20791;-68
2022/01/29 13:17:39;;;;;;;2.50;1.70;;;7.20;1.00;;;;;;5050396;28;20446;-69
2022/01/29 13:20:08;;;;;;;3.80;2.10;;;7.20;63.10;;;;;;5049428;28;20454;-67
2022/01/29 13:22:40;;;;;;;4.17;2.37;;;7.20;99.90;;;;;;5050681;28;20537;-68
2022/01/29 13:25:08;;;;;;;2.30;1.63;;;7.20;99.90;;;;;;5048925;28;20498;-67
2022/01/29 13:27:37;;;;;;;2.80;1.60;;;7.20;99.90;;;;;;5050674;28;20453;-68
2022/01/29 13:30:18;;;;;;;4.00;1.60;;;7.20;99.90;;;;;;5049639;28;20545;-66
2022/01/29 13:32:46;;;;;;;5.17;2.50;;;7.20;30.00;;;;;;5050564;28;20525;-68
2022/01/29 13:35:17;;;;;;;2.67;1.83;;;7.20;1.00;;;;;;5049283;28;20442;-68
2022/01/29 13:37:46;;;;;;;3.90;1.97;;;7.20;38.20;;;;;;5050100;28;20540;-68
2022/01/29 13:40:18;;;;;;;2.67;1.97;;;7.30;1.00;;;;;;5049514;28;20486;-68
2022/01/29 13:42:56;;;;;;;2.73;1.80;;;7.30;1.00;;;;;;5049851;28;20500;-68
2022/01/29 13:45:23;;;;;;;2.27;2.00;;;7.30;1.00;;;;;;5049193;28;20456;-68
2022/01/29 13:48:05;;;;;;;2.40;2.00;;;7.20;1.00;;;;;;5050137;28;20478;-69
2022/01/29 13:50:34;;;;;;;2.87;2.17;;;7.10;73.00;;;;;;5050189;28;20450;-68